createdAt,value
2018-11-29T00:00:47.125Z,983.3
2018-11-29T00:01:48.492Z,983.5
2018-11-29T00:02:49.750Z,983.5
2018-11-29T00:03:51.023Z,983.5
2018-11-29T00:04:52.304Z,983.5
2018-11-29T00:05:53.573Z,983.5
2018-11-29T00:06:54.923Z,983.5
2018-11-29T00:07:58.945Z,983.6
2018-11-29T00:09:01.279Z,983.4
2018-11-29T00:10:02.580Z,983.4
2018-11-29T00:11:04.089Z,983.5
2018-11-29T00:12:05.421Z,983.4
2018-11-29T00:13:06.697Z,983.5
2018-11-29T00:14:09.804Z,983.4
2018-11-29T00:15:13.837Z,983.4
2018-11-29T00:16:15.128Z,983.4
2018-11-29T00:17:16.426Z,983.4
2018-11-29T00:18:17.716Z,983.3
2018-11-29T00:19:25.120Z,983.3
2018-11-29T00:20:29.015Z,983.3
2018-11-29T00:21:30.332Z,983.3
2018-11-29T00:22:31.646Z,983.2
2018-11-29T00:23:33.856Z,983.1
2018-11-29T00:24:44.461Z,983.2
2018-11-29T00:25:45.741Z,983.2
2018-11-29T00:26:47.068Z,983.1
2018-11-29T00:27:48.380Z,983.1
2018-11-29T00:28:49.681Z,983.1
2018-11-29T00:29:50.999Z,983
2018-11-29T00:30:54.657Z,983
2018-11-29T00:31:58.151Z,983
2018-11-29T00:32:59.524Z,982.9
2018-11-29T00:34:00.835Z,982.7
2018-11-29T00:35:08.139Z,982.9
2018-11-29T00:36:09.399Z,982.9
2018-11-29T00:37:10.665Z,982.9
2018-11-29T00:38:12.266Z,983
2018-11-29T00:39:13.532Z,983
2018-11-29T00:40:14.796Z,982.9
2018-11-29T00:41:16.068Z,983
2018-11-29T00:42:17.377Z,983
2018-11-29T00:43:18.689Z,982.9
2018-11-29T00:44:22.623Z,983
2018-11-29T00:45:23.890Z,983
2018-11-29T00:46:27.936Z,982.8
2018-11-29T00:47:29.224Z,982.9
2018-11-29T00:48:30.552Z,982.9
2018-11-29T00:49:31.845Z,982.9
2018-11-29T00:50:33.116Z,982.9
2018-11-29T00:51:34.408Z,982.9
2018-11-29T00:52:35.724Z,982.9
2018-11-29T00:53:37.239Z,982.9
2018-11-29T00:54:38.550Z,982.9
2018-11-29T00:55:39.825Z,982.9
2018-11-29T00:56:43.868Z,982.7
2018-11-29T00:57:45.167Z,983
2018-11-29T00:58:46.445Z,983
2018-11-29T00:59:50.241Z,983.1
2018-11-29T01:00:51.798Z,983
2018-11-29T01:01:53.099Z,983.1
2018-11-29T01:02:54.395Z,983.1
2018-11-29T01:03:55.803Z,983.1
2018-11-29T01:05:00.662Z,983.2
2018-11-29T01:06:01.964Z,983.2
2018-11-29T01:07:03.297Z,983.1
2018-11-29T01:08:04.998Z,983.2
2018-11-29T01:09:06.361Z,983.1
2018-11-29T01:10:09.010Z,983.2
2018-11-29T01:11:10.311Z,983.2
2018-11-29T01:12:11.595Z,983.2
2018-11-29T01:13:12.949Z,983.1
2018-11-29T01:14:14.258Z,983.3
2018-11-29T01:15:15.542Z,983.3
2018-11-29T01:16:16.816Z,983.3
2018-11-29T01:17:18.089Z,983.3
2018-11-29T01:18:19.351Z,983.3
2018-11-29T01:19:21.390Z,983.4
2018-11-29T01:20:22.673Z,983.4
2018-11-29T01:21:23.962Z,983.4
2018-11-29T01:22:25.219Z,983.4
2018-11-29T01:23:27.969Z,983.1
2018-11-29T01:24:29.558Z,983.3
2018-11-29T01:25:30.859Z,983.3
2018-11-29T01:26:36.331Z,983.2
2018-11-29T01:27:37.580Z,983.2
2018-11-29T01:28:38.870Z,983.2
2018-11-29T01:29:40.160Z,983.3
2018-11-29T01:30:41.415Z,983.3
2018-11-29T01:31:42.699Z,983.3
2018-11-29T01:32:43.969Z,983.3
2018-11-29T01:33:45.262Z,983.4
2018-11-29T01:34:46.576Z,983.3
2018-11-29T01:35:47.868Z,983.3
2018-11-29T01:36:49.189Z,983.2
2018-11-29T01:37:50.449Z,983.2
2018-11-29T01:38:51.755Z,983
2018-11-29T01:39:53.134Z,983.1
2018-11-29T01:40:54.399Z,983.1
2018-11-29T01:41:55.693Z,983.2
2018-11-29T01:42:57.198Z,982.8
2018-11-29T01:43:58.479Z,983.1
2018-11-29T01:44:59.780Z,983.1
2018-11-29T01:46:01.068Z,983
2018-11-29T01:47:02.361Z,983
2018-11-29T01:48:03.637Z,983.1
2018-11-29T01:49:04.929Z,983.1
2018-11-29T01:50:06.235Z,983.1
2018-11-29T01:51:07.552Z,983.1
2018-11-29T01:52:08.865Z,983
2018-11-29T01:53:10.144Z,983.1
2018-11-29T01:54:11.413Z,983
2018-11-29T01:55:12.731Z,983
2018-11-29T01:56:14.026Z,982.9
2018-11-29T01:57:15.320Z,983
2018-11-29T01:58:16.601Z,983
2018-11-29T01:59:17.890Z,983
2018-11-29T02:00:19.225Z,983
2018-11-29T02:01:20.496Z,983.1
2018-11-29T02:02:21.804Z,983.1
2018-11-29T02:03:23.085Z,983
2018-11-29T02:04:24.366Z,983
2018-11-29T02:05:25.699Z,983.1
2018-11-29T02:06:27.263Z,983
2018-11-29T02:07:28.804Z,983.1
2018-11-29T02:08:30.099Z,983.1
2018-11-29T02:09:31.407Z,983.1
2018-11-29T02:10:32.741Z,983.1
2018-11-29T02:11:34.069Z,983.1
2018-11-29T02:12:35.351Z,983.2
2018-11-29T02:13:36.720Z,983.1
2018-11-29T02:14:38.103Z,983.1
2018-11-29T02:15:39.443Z,983.2
2018-11-29T02:16:40.951Z,983.2
2018-11-29T02:17:42.298Z,983.2
2018-11-29T02:18:43.582Z,983.1
2018-11-29T02:19:44.902Z,983.2
2018-11-29T02:20:46.300Z,983
2018-11-29T02:21:47.607Z,983
2018-11-29T02:22:48.906Z,983
2018-11-29T02:23:50.191Z,983
2018-11-29T02:24:51.488Z,982.7
2018-11-29T02:25:52.896Z,982.8
2018-11-29T02:26:54.209Z,983.1
2018-11-29T02:27:56.124Z,983
2018-11-29T02:28:57.888Z,983.1
2018-11-29T02:29:59.248Z,983
2018-11-29T02:31:00.588Z,982.9
2018-11-29T02:32:01.864Z,982.9
2018-11-29T02:33:03.522Z,983
2018-11-29T02:34:04.883Z,982.8
2018-11-29T02:35:06.231Z,983.1
2018-11-29T02:36:07.581Z,983.1
2018-11-29T02:37:08.897Z,983
2018-11-29T02:38:10.264Z,983
2018-11-29T02:39:11.868Z,982.9
2018-11-29T02:40:13.185Z,983
2018-11-29T02:41:14.610Z,983
2018-11-29T02:42:15.913Z,983
2018-11-29T02:43:17.568Z,983
2018-11-29T02:44:18.945Z,983
2018-11-29T02:45:20.282Z,983
2018-11-29T02:46:21.600Z,983
2018-11-29T02:47:22.895Z,983
2018-11-29T02:48:24.197Z,983.1
2018-11-29T02:49:25.526Z,983
2018-11-29T02:50:30.143Z,983.1
2018-11-29T02:51:31.539Z,983
2018-11-29T02:52:35.059Z,982.9
2018-11-29T02:53:36.397Z,983
2018-11-29T02:54:37.725Z,983
2018-11-29T02:55:39.025Z,983
2018-11-29T02:56:42.621Z,982.9
2018-11-29T02:57:43.981Z,982.9
2018-11-29T02:58:47.969Z,983
2018-11-29T02:59:52.308Z,983
2018-11-29T03:00:53.599Z,983
2018-11-29T03:01:54.935Z,983
2018-11-29T03:02:56.303Z,983
2018-11-29T03:03:57.718Z,983
2018-11-29T03:04:59.293Z,983.1
2018-11-29T03:06:00.624Z,983.1
2018-11-29T03:07:02.012Z,983.1
2018-11-29T03:08:03.417Z,983.1
2018-11-29T03:09:04.823Z,983
2018-11-29T03:10:06.110Z,983
2018-11-29T03:11:07.466Z,983
2018-11-29T03:12:08.825Z,982.9
2018-11-29T03:13:10.174Z,983
2018-11-29T03:14:11.673Z,983
2018-11-29T03:15:12.971Z,983
2018-11-29T03:16:22.483Z,982.9
2018-11-29T03:17:26.280Z,982.9
2018-11-29T03:18:27.581Z,982.9
2018-11-29T03:19:31.687Z,982.9
2018-11-29T03:20:32.988Z,982.9
2018-11-29T03:21:34.339Z,982.9
2018-11-29T03:22:35.688Z,982.8
2018-11-29T03:23:37.045Z,982.8
2018-11-29T03:24:38.364Z,982.7
2018-11-29T03:25:39.654Z,982.8
2018-11-29T03:26:41.109Z,982.8
2018-11-29T03:27:42.607Z,982.8
2018-11-29T03:28:44.038Z,982.9
2018-11-29T03:29:45.415Z,982.8
2018-11-29T03:30:46.804Z,982.8
2018-11-29T03:31:48.217Z,982.8
2018-11-29T03:32:49.572Z,982.9
2018-11-29T03:33:50.965Z,982.9
2018-11-29T03:34:52.254Z,982.9
2018-11-29T03:35:53.526Z,983
2018-11-29T03:36:54.808Z,982.8
2018-11-29T03:37:58.332Z,983.1
2018-11-29T03:38:59.613Z,982.9
2018-11-29T03:40:00.897Z,982.9
2018-11-29T03:41:02.169Z,982.8
2018-11-29T03:42:03.480Z,982.8
2018-11-29T03:43:04.781Z,982.8
2018-11-29T03:44:06.065Z,982.8
2018-11-29T03:45:07.361Z,982.8
2018-11-29T03:46:08.652Z,982.9
2018-11-29T03:47:11.164Z,982.9
2018-11-29T03:48:12.517Z,982.9
2018-11-29T03:49:13.788Z,982.8
2018-11-29T03:50:15.300Z,982.9
2018-11-29T03:51:16.598Z,982.8
2018-11-29T03:52:17.902Z,982.9
2018-11-29T03:53:19.244Z,982.9
2018-11-29T03:54:20.500Z,982.9
2018-11-29T03:55:21.777Z,983
2018-11-29T03:56:23.067Z,982.9
2018-11-29T03:57:24.329Z,982.8
2018-11-29T03:58:25.800Z,982.7
2018-11-29T03:59:29.871Z,982.6
2018-11-29T04:00:31.136Z,982.7
2018-11-29T04:01:32.411Z,982.6
2018-11-29T04:02:33.754Z,982.6
2018-11-29T04:03:35.076Z,982.6
2018-11-29T04:04:36.338Z,982.5
2018-11-29T04:05:37.599Z,982.5
2018-11-29T04:06:38.948Z,982.7
2018-11-29T04:07:40.230Z,982.7
2018-11-29T04:08:41.568Z,982.8
2018-11-29T04:09:42.856Z,982.9
2018-11-29T04:10:44.120Z,983
2018-11-29T04:11:45.597Z,982.9
2018-11-29T04:12:46.860Z,983
2018-11-29T04:13:48.192Z,983
2018-11-29T04:14:49.460Z,983
2018-11-29T04:15:50.730Z,983
2018-11-29T04:16:52.009Z,983.1
2018-11-29T04:17:53.292Z,983.1
2018-11-29T04:18:54.633Z,983.1
2018-11-29T04:19:55.920Z,983.1
2018-11-29T04:21:00.231Z,983.1
2018-11-29T04:22:01.515Z,983.1
2018-11-29T04:23:02.777Z,983.2
2018-11-29T04:24:04.120Z,983.3
2018-11-29T04:25:05.401Z,983.2
2018-11-29T04:26:06.682Z,983.1
2018-11-29T04:27:08.001Z,983.2
2018-11-29T04:28:09.291Z,983.1
2018-11-29T04:29:10.625Z,983.2
2018-11-29T04:30:11.950Z,983.2
2018-11-29T04:31:13.241Z,983.2
2018-11-29T04:32:14.507Z,983.1
2018-11-29T04:33:15.771Z,983.1
2018-11-29T04:34:17.300Z,983.1
2018-11-29T04:35:18.595Z,983
2018-11-29T04:36:19.892Z,983.2
2018-11-29T04:37:21.174Z,983.1
2018-11-29T04:38:22.458Z,982.9
2018-11-29T04:39:23.775Z,983.1
2018-11-29T04:40:25.075Z,983.1
2018-11-29T04:41:26.351Z,983.1
2018-11-29T04:42:30.684Z,983.1
2018-11-29T04:43:34.849Z,983.1
2018-11-29T04:44:36.174Z,983
2018-11-29T04:45:37.498Z,983
2018-11-29T04:46:38.762Z,983
2018-11-29T04:47:40.032Z,983
2018-11-29T04:48:41.469Z,983
2018-11-29T04:49:42.813Z,983
2018-11-29T04:50:44.099Z,983.1
2018-11-29T04:51:48.247Z,982.9
2018-11-29T04:52:49.536Z,983
2018-11-29T04:53:50.829Z,983
2018-11-29T04:54:52.163Z,983
2018-11-29T04:55:53.454Z,983.1
2018-11-29T04:56:54.850Z,982.9
2018-11-29T04:57:56.177Z,983
2018-11-29T04:58:57.460Z,982.9
2018-11-29T04:59:58.804Z,982.9
2018-11-29T05:01:02.203Z,982.9
2018-11-29T05:02:06.275Z,982.9
2018-11-29T05:03:07.552Z,982.9
2018-11-29T05:04:09.483Z,982.8
2018-11-29T05:05:10.840Z,982.8
2018-11-29T05:06:12.084Z,982.8
2018-11-29T05:07:13.370Z,982.9
2018-11-29T05:08:14.653Z,982.9
2018-11-29T05:09:16.115Z,982.9
2018-11-29T05:10:17.426Z,982.9
2018-11-29T05:11:18.966Z,982.9
2018-11-29T05:12:20.236Z,983
2018-11-29T05:13:21.556Z,982.9
2018-11-29T05:14:23.075Z,983
2018-11-29T05:15:24.457Z,982.9
2018-11-29T05:16:25.763Z,983
2018-11-29T05:17:27.328Z,982.9
2018-11-29T05:18:28.825Z,982.9
2018-11-29T05:19:30.156Z,982.9
2018-11-29T05:20:33.660Z,982.8
2018-11-29T05:21:36.072Z,982.8
2018-11-29T05:22:37.388Z,982.8
2018-11-29T05:23:38.746Z,982.8
2018-11-29T05:24:40.127Z,982.8
2018-11-29T05:25:41.471Z,982.6
2018-11-29T05:26:42.866Z,982.8
2018-11-29T05:27:44.200Z,982.8
2018-11-29T05:28:45.492Z,982.8
2018-11-29T05:29:46.789Z,982.7
2018-11-29T05:30:53.995Z,982.8
2018-11-29T05:32:02.618Z,982.8
2018-11-29T05:33:16.589Z,982.7
2018-11-29T05:34:21.810Z,982.7
2018-11-29T05:35:26.539Z,982.6
2018-11-29T05:36:28.828Z,982.6
2018-11-29T05:37:30.121Z,982.4
2018-11-29T05:38:31.495Z,982.6
2018-11-29T05:39:32.783Z,982.5
2018-11-29T05:40:35.356Z,982.5
2018-11-29T05:41:36.752Z,982.5
2018-11-29T05:42:38.103Z,982.4
2018-11-29T05:43:39.387Z,982.6
2018-11-29T05:44:40.755Z,982.6
2018-11-29T05:45:42.299Z,982.5
2018-11-29T05:46:43.652Z,982.5
2018-11-29T05:47:47.021Z,982.5
2018-11-29T05:48:48.299Z,982.7
2018-11-29T05:49:49.817Z,982.5
2018-11-29T05:50:53.884Z,982.7
2018-11-29T05:51:55.298Z,982.6
2018-11-29T05:52:57.672Z,982.5
2018-11-29T05:53:58.960Z,982.5
2018-11-29T05:55:00.661Z,982.5
2018-11-29T05:56:02.250Z,982.5
2018-11-29T05:57:03.638Z,982.6
2018-11-29T05:58:04.977Z,982.7
2018-11-29T05:59:06.301Z,982.6
2018-11-29T06:00:07.642Z,982.7
2018-11-29T06:01:09.116Z,982.7
2018-11-29T06:02:10.501Z,982.6
2018-11-29T06:03:14.033Z,982.7
2018-11-29T06:04:18.168Z,982.7
2018-11-29T06:05:20.757Z,982.6
2018-11-29T06:06:22.039Z,982.6
2018-11-29T06:07:23.665Z,982.6
2018-11-29T06:08:25.017Z,982.6
2018-11-29T06:09:26.329Z,982.6
2018-11-29T06:10:27.659Z,982.5
2018-11-29T06:11:29.248Z,982.5
2018-11-29T06:12:30.590Z,982.3
2018-11-29T06:13:31.948Z,982.5
2018-11-29T06:14:33.256Z,982.7
2018-11-29T06:15:34.585Z,982.7
2018-11-29T06:16:35.953Z,982.7
2018-11-29T06:17:51.798Z,982.6
2018-11-29T06:18:53.104Z,982.6
2018-11-29T06:19:54.502Z,982.6
2018-11-29T06:20:56.234Z,982.7
2018-11-29T06:21:57.543Z,982.6
2018-11-29T06:22:58.985Z,982.7
2018-11-29T06:24:00.340Z,982.7
2018-11-29T06:25:03.219Z,982.5
2018-11-29T06:26:04.532Z,982.6
2018-11-29T06:27:05.946Z,982.5
2018-11-29T06:28:09.043Z,982.5
2018-11-29T06:29:10.354Z,982.7
2018-11-29T06:30:11.693Z,982.7
2018-11-29T06:31:13.069Z,982.7
2018-11-29T06:32:14.437Z,982.6
2018-11-29T06:33:20.861Z,982.7
2018-11-29T06:34:25.355Z,982.5
2018-11-29T06:35:31.546Z,982.5
2018-11-29T06:36:33.342Z,982.7
2018-11-29T06:37:34.685Z,982.7
2018-11-29T06:38:36.184Z,982.5
2018-11-29T06:39:37.561Z,982.6
2018-11-29T06:40:39.028Z,982.5
2018-11-29T06:41:40.443Z,982.5
2018-11-29T06:42:42.939Z,982.5
2018-11-29T06:43:44.345Z,982.5
2018-11-29T06:44:45.640Z,982.5
2018-11-29T06:45:52.238Z,982.5
2018-11-29T06:46:53.572Z,982.5
2018-11-29T06:48:01.032Z,982.5
2018-11-29T06:49:02.410Z,982.5
2018-11-29T06:50:03.740Z,982.3
2018-11-29T06:51:05.541Z,982.5
2018-11-29T06:52:06.991Z,982.5
2018-11-29T06:53:11.478Z,982.4
2018-11-29T06:54:17.423Z,982.3
2018-11-29T06:55:20.220Z,982.2
2018-11-29T06:56:24.324Z,982.2
2018-11-29T06:57:25.712Z,982.3
2018-11-29T06:58:30.629Z,982.3
2018-11-29T06:59:32.031Z,982.3
2018-11-29T07:00:33.437Z,982.4
2018-11-29T07:01:34.753Z,982.2
2018-11-29T07:02:36.655Z,982.2
2018-11-29T07:03:39.364Z,982.3
2018-11-29T07:04:42.992Z,982.3
2018-11-29T07:05:44.421Z,982.3
2018-11-29T07:06:47.336Z,982.2
2018-11-29T07:07:56.482Z,982.1
2018-11-29T07:08:57.928Z,982.2
2018-11-29T07:10:04.212Z,982.2
2018-11-29T07:11:07.089Z,982.2
2018-11-29T07:12:08.673Z,982.2
2018-11-29T07:13:09.995Z,982.2
2018-11-29T07:14:11.321Z,982.2
2018-11-29T07:15:12.626Z,982.2
2018-11-29T07:16:13.944Z,982.2
2018-11-29T07:17:15.257Z,982.2
2018-11-29T07:18:16.554Z,982.1
2018-11-29T07:19:17.892Z,982.2
2018-11-29T07:20:19.192Z,982.2
2018-11-29T07:21:20.500Z,982.1
2018-11-29T07:22:21.892Z,982.2
2018-11-29T07:23:23.205Z,982
2018-11-29T07:24:24.763Z,982.2
2018-11-29T07:25:29.226Z,982.1
2018-11-29T07:26:33.116Z,982.1
2018-11-29T07:27:34.665Z,982.2
2018-11-29T07:28:36.374Z,982.1
2018-11-29T07:29:37.800Z,982.2
2018-11-29T07:30:42.215Z,982.1
2018-11-29T07:31:43.552Z,982.3
2018-11-29T07:32:45.236Z,982.3
2018-11-29T07:33:46.560Z,982.2
2018-11-29T07:34:51.749Z,982.2
2018-11-29T07:35:53.205Z,982.1
2018-11-29T07:36:56.669Z,982.1
2018-11-29T07:38:02.643Z,982.1
2018-11-29T07:39:04.035Z,982.3
2018-11-29T07:40:05.507Z,982.1
2018-11-29T07:41:07.076Z,982
2018-11-29T07:42:08.790Z,982.2
2018-11-29T07:43:10.853Z,982.1
2018-11-29T07:44:14.507Z,982
2018-11-29T07:45:19.210Z,982
2018-11-29T07:46:20.653Z,982
2018-11-29T07:47:21.978Z,981.9
2018-11-29T07:48:24.470Z,982
2018-11-29T07:49:29.151Z,982
2018-11-29T07:50:30.606Z,982
2018-11-29T07:51:32.270Z,981.8
2018-11-29T07:52:33.649Z,982
2018-11-29T07:53:37.055Z,982
2018-11-29T07:54:38.473Z,982
2018-11-29T07:55:42.696Z,981.9
2018-11-29T07:56:45.004Z,982.1
2018-11-29T07:57:48.757Z,982.2
2018-11-29T07:58:54.707Z,982
2018-11-29T07:59:56.272Z,982.1
2018-11-29T08:00:58.609Z,982.2
2018-11-29T08:01:59.990Z,982.2
2018-11-29T08:03:01.340Z,982.1
2018-11-29T08:04:02.715Z,982.1
2018-11-29T08:05:05.004Z,982.2
2018-11-29T08:06:08.140Z,982.1
2018-11-29T08:07:09.624Z,982.1
2018-11-29T08:08:11.101Z,982.3
2018-11-29T08:09:15.380Z,982.2
2018-11-29T08:10:16.765Z,982.3
2018-11-29T08:11:18.313Z,982.2
2018-11-29T08:12:20.182Z,982.2
2018-11-29T08:13:21.744Z,982.3
2018-11-29T08:14:23.287Z,982.3
2018-11-29T08:15:24.594Z,982.2
2018-11-29T08:16:25.987Z,982.2
2018-11-29T08:17:27.362Z,982.3
2018-11-29T08:18:28.718Z,982.3
2018-11-29T08:19:30.128Z,982.4
2018-11-29T08:20:31.576Z,982.1
2018-11-29T08:21:33.154Z,982.1
2018-11-29T08:22:35.924Z,982.3
2018-11-29T08:23:39.584Z,982.1
2018-11-29T08:24:41.065Z,982.1
2018-11-29T08:25:42.478Z,982
2018-11-29T08:26:43.788Z,982.1
2018-11-29T08:27:54.336Z,981.9
2018-11-29T08:28:55.611Z,981.8
2018-11-29T08:29:56.888Z,981.9
2018-11-29T08:31:05.787Z,981.8
2018-11-29T08:32:07.111Z,982.1
2018-11-29T08:33:08.576Z,982.1
2018-11-29T08:34:09.900Z,982
2018-11-29T08:35:13.692Z,982.1
2018-11-29T08:36:15.461Z,982
2018-11-29T08:37:19.573Z,981.9
2018-11-29T08:38:24.825Z,981.8
2018-11-29T08:39:36.515Z,981.7
2018-11-29T08:40:38.112Z,981.9
2018-11-29T08:41:39.562Z,981.8
2018-11-29T08:42:41.209Z,981.9
2018-11-29T08:43:44.094Z,981.9
2018-11-29T08:44:45.624Z,982
2018-11-29T08:45:50.196Z,981.9
2018-11-29T08:46:51.561Z,981.9
2018-11-29T08:47:52.836Z,981.7
2018-11-29T08:48:54.208Z,981.9
2018-11-29T08:49:58.187Z,982
2018-11-29T08:51:03.026Z,981.8
2018-11-29T08:52:07.369Z,981.9
2018-11-29T08:53:11.732Z,981.9
2018-11-29T08:54:13.085Z,981.8
2018-11-29T08:55:14.443Z,981.5
2018-11-29T08:56:16.004Z,981.7
2018-11-29T08:57:17.323Z,981.5
2018-11-29T08:58:18.746Z,981.7
2018-11-29T08:59:20.295Z,981.7
2018-11-29T09:00:24.869Z,981.7
2018-11-29T09:01:27.866Z,981.7
2018-11-29T09:02:29.157Z,981.6
2018-11-29T09:03:30.660Z,981.7
2018-11-29T09:04:32.292Z,981.6
2018-11-29T09:05:34.847Z,981.8
2018-11-29T09:06:36.633Z,981.7
2018-11-29T09:07:43.022Z,981.6
2018-11-29T09:08:44.331Z,981.6
2018-11-29T09:09:45.743Z,981.6
2018-11-29T09:10:49.378Z,981.4
2018-11-29T09:11:51.738Z,981.5
2018-11-29T09:12:55.877Z,981.6
2018-11-29T09:13:58.406Z,981.4
2018-11-29T09:14:59.842Z,981.4
2018-11-29T09:16:01.181Z,981.3
2018-11-29T09:17:02.543Z,981.4
2018-11-29T09:18:06.622Z,981.4
2018-11-29T09:19:07.991Z,981.3
2018-11-29T09:20:09.654Z,981.3
2018-11-29T09:21:11.044Z,981.2
2018-11-29T09:22:12.693Z,981.4
2018-11-29T09:23:14.979Z,981.4
2018-11-29T09:24:17.496Z,981.4
2018-11-29T09:25:22.182Z,981.3
2018-11-29T09:26:32.041Z,981.4
2018-11-29T09:27:33.473Z,981.3
2018-11-29T09:28:34.815Z,981.3
2018-11-29T09:29:36.476Z,981.4
2018-11-29T09:30:48.988Z,981.5
2018-11-29T09:31:53.460Z,981.5
2018-11-29T09:32:54.811Z,981.6
2018-11-29T09:33:56.987Z,981.6
2018-11-29T09:34:59.323Z,981.6
2018-11-29T09:36:00.803Z,981.5
2018-11-29T09:37:02.377Z,981.6
2018-11-29T09:38:04.500Z,981.6
2018-11-29T09:39:07.367Z,981.6
2018-11-29T09:40:10.413Z,981.5
2018-11-29T09:41:11.741Z,981.5
2018-11-29T09:42:13.115Z,981.5
2018-11-29T09:43:14.677Z,981.6
2018-11-29T09:44:16.608Z,981.5
2018-11-29T09:45:18.001Z,981.4
2018-11-29T09:46:22.292Z,981.6
2018-11-29T09:47:23.696Z,981.4
2018-11-29T09:48:32.078Z,981.5
2018-11-29T09:49:33.689Z,981.5
2018-11-29T09:50:35.104Z,981.5
2018-11-29T09:51:37.795Z,981.5
2018-11-29T09:52:39.131Z,981.5
2018-11-29T09:53:41.784Z,981.5
2018-11-29T09:54:45.778Z,981.4
2018-11-29T09:55:47.309Z,981.5
2018-11-29T09:56:48.704Z,981.4
2018-11-29T09:57:50.105Z,981.4
2018-11-29T09:58:51.440Z,981.5
2018-11-29T09:59:54.990Z,981.5
2018-11-29T10:00:56.560Z,981.4
2018-11-29T10:02:05.292Z,981.6
2018-11-29T10:03:12.163Z,981.5
2018-11-29T10:04:16.207Z,981.5
2018-11-29T10:05:20.634Z,981.5
2018-11-29T10:06:22.043Z,981.4
2018-11-29T10:07:32.330Z,981.5
2018-11-29T10:08:33.875Z,981.4
2018-11-29T10:09:35.372Z,981.5
2018-11-29T10:10:38.008Z,981.5
2018-11-29T10:11:51.152Z,981.5
2018-11-29T10:12:52.552Z,981.6
2018-11-29T10:13:55.152Z,981.5
2018-11-29T10:14:56.464Z,981.5
2018-11-29T10:16:00.276Z,981.5
2018-11-29T10:17:12.939Z,981.3
2018-11-29T10:18:24.674Z,981.4
2018-11-29T10:19:26.353Z,981.3
2018-11-29T10:20:29.851Z,981.2
2018-11-29T10:21:31.177Z,981.3
2018-11-29T10:22:39.090Z,981.4
2018-11-29T10:23:40.601Z,981.3
2018-11-29T10:24:44.351Z,981.2
2018-11-29T10:25:45.728Z,981
2018-11-29T10:27:01.534Z,981.3
2018-11-29T10:28:02.915Z,981.3
2018-11-29T10:29:04.286Z,981.3
2018-11-29T10:30:06.932Z,981.3
2018-11-29T10:31:08.545Z,981.4
2018-11-29T10:32:11.123Z,981.3
2018-11-29T10:33:13.339Z,981.3
2018-11-29T10:34:15.920Z,981.3
2018-11-29T10:35:19.953Z,981.3
2018-11-29T10:36:21.561Z,981.3
2018-11-29T10:37:26.528Z,981.2
2018-11-29T10:38:28.472Z,981.1
2018-11-29T10:39:33.616Z,981.1
2018-11-29T10:40:37.805Z,981.1
2018-11-29T10:41:42.218Z,981.1
2018-11-29T10:42:43.574Z,981.2
2018-11-29T10:43:44.968Z,981.1
2018-11-29T10:44:46.459Z,980.9
2018-11-29T10:45:55.316Z,980.9
2018-11-29T10:46:56.765Z,981
2018-11-29T10:48:03.096Z,981
2018-11-29T10:49:04.782Z,980.8
2018-11-29T10:50:13.269Z,981
2018-11-29T10:51:14.613Z,981
2018-11-29T10:52:16.007Z,980.9
2018-11-29T10:53:19.927Z,980.9
2018-11-29T10:54:21.372Z,980.9
2018-11-29T10:55:24.526Z,980.9
2018-11-29T10:56:25.882Z,980.9
2018-11-29T10:57:30.224Z,980.7
2018-11-29T10:58:31.679Z,980.9
2018-11-29T10:59:33.328Z,980.8
2018-11-29T11:00:35.005Z,980.9
2018-11-29T11:01:36.619Z,980.9
2018-11-29T11:02:38.182Z,980.8
2018-11-29T11:03:39.658Z,980.9
2018-11-29T11:04:41.211Z,980.8
2018-11-29T11:05:43.932Z,981
2018-11-29T11:06:59.928Z,981
2018-11-29T11:08:07.748Z,981
2018-11-29T11:09:09.624Z,981
2018-11-29T11:10:11.278Z,981
2018-11-29T11:11:16.003Z,980.9
2018-11-29T11:12:19.674Z,980.9
2018-11-29T11:13:23.272Z,980.9
2018-11-29T11:14:27.236Z,980.8
2018-11-29T11:15:34.184Z,980.9
2018-11-29T11:16:42.557Z,980.9
2018-11-29T11:17:46.497Z,980.8
2018-11-29T11:18:50.139Z,980.8
2018-11-29T11:19:54.132Z,980.9
2018-11-29T11:20:56.540Z,980.9
2018-11-29T11:22:00.661Z,981
2018-11-29T11:23:07.489Z,980.9
2018-11-29T11:24:10.120Z,980.8
2018-11-29T11:25:16.369Z,980.9
2018-11-29T11:26:28.756Z,980.9
2018-11-29T11:27:35.871Z,980.9
2018-11-29T11:28:38.441Z,980.9
2018-11-29T11:29:40.079Z,980.9
2018-11-29T11:30:41.429Z,980.8
2018-11-29T11:31:43.331Z,980.8
2018-11-29T11:32:44.740Z,980.7
2018-11-29T11:33:46.414Z,980.8
2018-11-29T11:34:47.835Z,980.7
2018-11-29T11:35:49.633Z,980.7
2018-11-29T11:36:51.296Z,980.8
2018-11-29T11:37:54.276Z,980.8
2018-11-29T11:38:57.187Z,980.8
2018-11-29T11:40:01.459Z,980.7
2018-11-29T11:41:02.880Z,980.7
2018-11-29T11:42:04.392Z,980.7
2018-11-29T11:43:06.547Z,980.6
2018-11-29T11:44:08.807Z,980.7
2018-11-29T11:45:10.321Z,980.7
2018-11-29T11:46:11.689Z,980.5
2018-11-29T11:47:13.121Z,980.7
2018-11-29T11:48:14.489Z,980.7
2018-11-29T11:49:15.781Z,980.7
2018-11-29T11:50:20.139Z,980.7
2018-11-29T11:51:24.070Z,980.7
2018-11-29T11:52:25.366Z,980.5
2018-11-29T11:53:30.341Z,980.7
2018-11-29T11:54:31.677Z,980.7
2018-11-29T11:55:32.953Z,980.7
2018-11-29T11:56:34.502Z,980.7
2018-11-29T11:57:35.808Z,980.6
2018-11-29T11:58:37.104Z,980.7
2018-11-29T11:59:38.378Z,980.6
2018-11-29T12:00:41.294Z,980.4
2018-11-29T12:01:42.544Z,980.6
2018-11-29T12:02:44.329Z,980.6
2018-11-29T12:03:45.737Z,980.5
2018-11-29T12:04:56.472Z,980.4
2018-11-29T12:06:00.889Z,980.5
2018-11-29T12:07:04.117Z,980.4
2018-11-29T12:08:05.433Z,980.3
2018-11-29T12:09:11.606Z,980.4
2018-11-29T12:10:12.886Z,980.3
2018-11-29T12:11:14.315Z,980.2
2018-11-29T12:12:22.113Z,980.4
2018-11-29T12:13:24.992Z,980.4
2018-11-29T12:14:26.620Z,980.4
2018-11-29T12:15:27.946Z,980.4
2018-11-29T12:16:29.312Z,980.6
2018-11-29T12:17:31.314Z,980.5
2018-11-29T12:18:34.578Z,980.3
2018-11-29T12:19:35.884Z,980.2
2018-11-29T12:20:37.223Z,980.3
2018-11-29T12:21:40.651Z,980.3
2018-11-29T12:22:42.002Z,980.3
2018-11-29T12:23:43.351Z,980.1
2018-11-29T12:24:44.696Z,980.2
2018-11-29T12:25:45.974Z,980.3
2018-11-29T12:26:47.264Z,980.3
2018-11-29T12:28:02.992Z,980.2
2018-11-29T12:29:07.646Z,980.1
2018-11-29T12:30:08.979Z,980.1
2018-11-29T12:31:10.254Z,980.1
2018-11-29T12:32:11.546Z,980
2018-11-29T12:33:12.834Z,980.1
2018-11-29T12:34:14.481Z,980.1
2018-11-29T12:35:21.245Z,980.1
2018-11-29T12:36:22.567Z,980.1
2018-11-29T12:37:36.584Z,980.1
2018-11-29T12:38:40.000Z,980.1
2018-11-29T12:39:50.298Z,980
2018-11-29T12:40:51.621Z,980
2018-11-29T12:41:52.899Z,979.8
2018-11-29T12:42:59.648Z,979.9
2018-11-29T12:44:00.930Z,979.9
2018-11-29T12:45:06.613Z,979.9
2018-11-29T12:46:11.674Z,980
2018-11-29T12:47:13.244Z,979.9
2018-11-29T12:48:14.539Z,979.9
2018-11-29T12:49:19.923Z,980
2018-11-29T12:50:21.300Z,979.9
2018-11-29T12:51:22.835Z,979.9
2018-11-29T12:52:24.314Z,979.9
2018-11-29T12:53:25.579Z,979.8
2018-11-29T12:54:26.871Z,979.8
2018-11-29T12:55:28.143Z,979.8
2018-11-29T12:56:30.756Z,979.8
2018-11-29T12:57:34.255Z,979.8
2018-11-29T12:58:37.145Z,979.7
2018-11-29T12:59:40.454Z,979.8
2018-11-29T13:00:41.757Z,979.8
2018-11-29T13:01:44.781Z,979.7
2018-11-29T13:02:46.135Z,979.7
2018-11-29T13:03:47.402Z,979.6
2018-11-29T13:04:48.893Z,979.7
2018-11-29T13:05:50.255Z,979.5
2018-11-29T13:06:51.597Z,979.6
2018-11-29T13:07:52.855Z,979.6
2018-11-29T13:08:54.167Z,979.5
2018-11-29T13:09:55.467Z,979.6
2018-11-29T13:10:56.731Z,979.5
2018-11-29T13:11:58.050Z,979.5
2018-11-29T13:12:59.572Z,979.4
2018-11-29T13:14:03.261Z,979.4
2018-11-29T13:15:06.910Z,979.4
2018-11-29T13:16:08.195Z,979.3
2018-11-29T13:17:09.483Z,979.2
2018-11-29T13:18:19.034Z,979.3
2018-11-29T13:19:20.356Z,979.3
2018-11-29T13:20:21.627Z,979.3
2018-11-29T13:21:25.885Z,979.3
2018-11-29T13:22:29.551Z,979.3
2018-11-29T13:23:33.793Z,979.2
2018-11-29T13:24:35.303Z,979.2
2018-11-29T13:25:36.779Z,979.2
2018-11-29T13:26:38.036Z,979.2
2018-11-29T13:27:42.094Z,979.2
2018-11-29T13:28:46.368Z,979.2
2018-11-29T13:29:51.585Z,979.1
2018-11-29T13:30:55.309Z,978.5